sensor_id;sensor_type;location;lat;lon;timestamp;pressure;altitude;pressure_sealevel;temperature;humidity
22031;BME280;11179;52.106;21.024;2023-09-19T00:01:22;99785.41;;;17.75;68.47
22031;BME280;11179;52.106;21.024;2023-09-19T00:03:47;99782.63;;;17.75;68.52
22031;BME280;11179;52.106;21.024;2023-09-19T00:06:13;99782.00;;;17.78;68.52
22031;BME280;11179;52.106;21.024;2023-09-19T00:08:41;99787.56;;;17.78;68.65
22031;BME280;11179;52.106;21.024;2023-09-19T00:11:09;99784.78;;;17.78;68.70
22031;BME280;11179;52.106;21.024;2023-09-19T00:13:36;99782.00;;;17.78;68.63
22031;BME280;11179;52.106;21.024;2023-09-19T00:16:08;99786.25;;;17.75;68.77
22031;BME280;11179;52.106;21.024;2023-09-19T00:18:35;99784.91;;;17.73;68.93
22031;BME280;11179;52.106;21.024;2023-09-19T00:21:01;99783.94;;;17.69;69.01
22031;BME280;11179;52.106;21.024;2023-09-19T00:23:26;99786.06;;;17.72;69.03
22031;BME280;11179;52.106;21.024;2023-09-19T00:25:53;99776.75;;;17.68;69.16
22031;BME280;11179;52.106;21.024;2023-09-19T00:28:22;99786.22;;;17.67;69.42
22031;BME280;11179;52.106;21.024;2023-09-19T00:30:47;99792.59;;;17.67;69.45
22031;BME280;11179;52.106;21.024;2023-09-19T00:33:52;99730.53;;;17.41;69.47
22031;BME280;11179;52.106;21.024;2023-09-19T00:36:36;99763.81;;;17.63;69.53
22031;BME280;11179;52.106;21.024;2023-09-19T00:39:09;99768.41;;;17.68;69.61
22031;BME280;11179;52.106;21.024;2023-09-19T00:41:38;99723.03;;;17.41;69.39
22031;BME280;11179;52.106;21.024;2023-09-19T00:44:04;99747.25;;;17.49;69.51
22031;BME280;11179;52.106;21.024;2023-09-19T00:46:41;99732.50;;;17.40;69.55
22031;BME280;11179;52.106;21.024;2023-09-19T00:49:11;99746.94;;;17.51;69.66
22031;BME280;11179;52.106;21.024;2023-09-19T00:51:52;99700.13;;;17.27;69.86
22031;BME280;11179;52.106;21.024;2023-09-19T00:54:34;99752.25;;;17.70;69.88
22031;BME280;11179;52.106;21.024;2023-09-19T00:57:13;99702.41;;;17.34;69.77
22031;BME280;11179;52.106;21.024;2023-09-19T00:59:50;99708.03;;;17.42;69.68
22031;BME280;11179;52.106;21.024;2023-09-19T01:02:43;99739.78;;;17.58;69.96
22031;BME280;11179;52.106;21.024;2023-09-19T01:05:22;99754.22;;;17.69;69.89
22031;BME280;11179;52.106;21.024;2023-09-19T01:08:05;99688.22;;;17.35;69.81
22031;BME280;11179;52.106;21.024;2023-09-19T01:14:18;99729.81;;;17.57;70.03
22031;BME280;11179;52.106;21.024;2023-09-19T01:23:21;99721.22;;;17.68;69.89
22031;BME280;11179;52.106;21.024;2023-09-19T01:26:07;99733.16;;;17.77;69.83
22031;BME280;11179;52.106;21.024;2023-09-19T01:28:57;99663.25;;;17.35;69.99
22031;BME280;11179;52.106;21.024;2023-09-19T01:31:31;99708.44;;;17.58;70.19
22031;BME280;11179;52.106;21.024;2023-09-19T01:34:02;99670.13;;;17.38;70.20
22031;BME280;11179;52.106;21.024;2023-09-19T01:36:40;99655.91;;;17.31;70.04
22031;BME280;11179;52.106;21.024;2023-09-19T01:39:25;99725.16;;;17.75;69.79
22031;BME280;11179;52.106;21.024;2023-09-19T01:49:33;99705.06;;;17.70;70.02
22031;BME280;11179;52.106;21.024;2023-09-19T01:52:31;99695.75;;;17.74;69.91
22031;BME280;11179;52.106;21.024;2023-09-19T01:58:17;99652.69;;;17.46;69.94
22031;BME280;11179;52.106;21.024;2023-09-19T02:00:58;99646.81;;;17.47;70.19
22031;BME280;11179;52.106;21.024;2023-09-19T02:03:47;99654.53;;;17.50;69.91
22031;BME280;11179;52.106;21.024;2023-09-19T02:06:28;99665.97;;;17.57;70.20
22031;BME280;11179;52.106;21.024;2023-09-19T02:09:00;99664.50;;;17.60;69.76
22031;BME280;11179;52.106;21.024;2023-09-19T02:11:25;99705.41;;;17.85;70.15
22031;BME280;11179;52.106;21.024;2023-09-19T02:14:02;99702.63;;;17.85;69.91
22031;BME280;11179;52.106;21.024;2023-09-19T02:16:46;99673.72;;;17.69;70.11
22031;BME280;11179;52.106;21.024;2023-09-19T02:19:21;99693.16;;;17.86;69.88
22031;BME280;11179;52.106;21.024;2023-09-19T02:21:56;99698.09;;;17.89;70.13
22031;BME280;11179;52.106;21.024;2023-09-19T02:24:40;99679.28;;;17.78;70.15
22031;BME280;11179;52.106;21.024;2023-09-19T02:27:11;99622.31;;;17.41;69.94
22031;BME280;11179;52.106;21.024;2023-09-19T02:29:45;99639.69;;;17.55;70.01
22031;BME280;11179;52.106;21.024;2023-09-19T02:32:17;99684.31;;;17.76;70.01
22031;BME280;11179;52.106;21.024;2023-09-19T02:34:49;99624.41;;;17.35;70.22
22031;BME280;11179;52.106;21.024;2023-09-19T02:37:24;99619.84;;;17.31;69.97
22031;BME280;11179;52.106;21.024;2023-09-19T02:40:03;99651.13;;;17.53;70.19
22031;BME280;11179;52.106;21.024;2023-09-19T02:42:56;99646.97;;;17.42;70.44
22031;BME280;11179;52.106;21.024;2023-09-19T02:45:30;99658.72;;;17.48;70.53
22031;BME280;11179;52.106;21.024;2023-09-19T02:48:06;99616.38;;;17.16;70.54
22031;BME280;11179;52.106;21.024;2023-09-19T02:50:41;99609.19;;;17.15;70.31
22031;BME280;11179;52.106;21.024;2023-09-19T02:53:12;99621.44;;;17.23;70.63
22031;BME280;11179;52.106;21.024;2023-09-19T02:55:41;99647.13;;;17.37;70.38
22031;BME280;11179;52.106;21.024;2023-09-19T02:58:13;99595.44;;;17.10;70.59
22031;BME280;11179;52.106;21.024;2023-09-19T03:01:05;99639.28;;;17.31;70.52
22031;BME280;11179;52.106;21.024;2023-09-19T03:03:33;99621.09;;;17.16;70.63
22031;BME280;11179;52.106;21.024;2023-09-19T03:06:02;99614.72;;;17.15;70.82
22031;BME280;11179;52.106;21.024;2023-09-19T03:08:41;99622.88;;;17.12;70.91
22031;BME280;11179;52.106;21.024;2023-09-19T03:11:12;99603.16;;;16.91;70.80
22031;BME280;11179;52.106;21.024;2023-09-19T03:14:09;99653.91;;;17.22;71.14
22031;BME280;11179;52.106;21.024;2023-09-19T03:17:09;99621.63;;;16.96;70.95
22031;BME280;11179;52.106;21.024;2023-09-19T03:19:53;99592.22;;;16.77;70.87
22031;BME280;11179;52.106;21.024;2023-09-19T03:22:43;99624.78;;;17.03;71.13
22031;BME280;11179;52.106;21.024;2023-09-19T03:25:29;99641.28;;;17.08;71.30
22031;BME280;11179;52.106;21.024;2023-09-19T03:28:06;99610.19;;;16.89;71.12
22031;BME280;11179;52.106;21.024;2023-09-19T03:30:32;99639.50;;;17.12;71.38
22031;BME280;11179;52.106;21.024;2023-09-19T03:32:58;99643.59;;;17.14;71.40
22031;BME280;11179;52.106;21.024;2023-09-19T03:35:24;99638.19;;;17.09;71.46
22031;BME280;11179;52.106;21.024;2023-09-19T03:41:05;99643.59;;;17.14;71.56
22031;BME280;11179;52.106;21.024;2023-09-19T03:44:08;99612.19;;;16.97;71.66
22031;BME280;11179;52.106;21.024;2023-09-19T03:46:44;99615.28;;;16.95;71.66
22031;BME280;11179;52.106;21.024;2023-09-19T03:49:18;99619.56;;;17.01;71.70
22031;BME280;11179;52.106;21.024;2023-09-19T03:55:18;99640.97;;;17.18;71.68
22031;BME280;11179;52.106;21.024;2023-09-19T03:57:54;99589.47;;;16.86;71.54
22031;BME280;11179;52.106;21.024;2023-09-19T04:00:32;99606.75;;;16.92;71.78
22031;BME280;11179;52.106;21.024;2023-09-19T04:03:08;99575.94;;;16.84;71.92
22031;BME280;11179;52.106;21.024;2023-09-19T04:09:08;99615.34;;;17.12;71.98
22031;BME280;11179;52.106;21.024;2023-09-19T04:11:49;99562.19;;;16.79;72.05
22031;BME280;11179;52.106;21.024;2023-09-19T04:14:26;99613.09;;;17.14;71.92
22031;BME280;11179;52.106;21.024;2023-09-19T04:17:08;99573.19;;;16.93;71.85
22031;BME280;11179;52.106;21.024;2023-09-19T04:19:53;99616.38;;;17.16;72.00
22031;BME280;11179;52.106;21.024;2023-09-19T04:25:46;99617.31;;;17.12;72.12
22031;BME280;11179;52.106;21.024;2023-09-19T04:28:14;99605.22;;;17.08;71.84
22031;BME280;11179;52.106;21.024;2023-09-19T04:30:44;99573.03;;;16.90;71.80
22031;BME280;11179;52.106;21.024;2023-09-19T04:33:12;99542.94;;;16.74;72.07
22031;BME280;11179;52.106;21.024;2023-09-19T04:35:55;99597.91;;;17.12;72.43
22031;BME280;11179;52.106;21.024;2023-09-19T04:39:10;99554.69;;;16.80;72.12
22031;BME280;11179;52.106;21.024;2023-09-19T04:41:54;99564.69;;;16.90;72.35
22031;BME280;11179;52.106;21.024;2023-09-19T04:44:45;99550.75;;;16.72;72.23
22031;BME280;11179;52.106;21.024;2023-09-19T04:47:28;99536.38;;;16.70;72.03
22031;BME280;11179;52.106;21.024;2023-09-19T04:50:02;99546.88;;;16.82;72.34
22031;BME280;11179;52.106;21.024;2023-09-19T04:52:32;99600.69;;;17.20;72.39
22031;BME280;11179;52.106;21.024;2023-09-19T04:55:25;99566.69;;;17.06;72.17
22031;BME280;11179;52.106;21.024;2023-09-19T05:01:15;99602.59;;;17.42;71.76
22031;BME280;11179;52.106;21.024;2023-09-19T05:03:42;99533.09;;;17.08;71.70
22031;BME280;11179;52.106;21.024;2023-09-19T05:06:13;99528.06;;;17.10;71.67
22031;BME280;11179;52.106;21.024;2023-09-19T05:08:43;99544.13;;;17.30;71.69
22031;BME280;11179;52.106;21.024;2023-09-19T05:11:12;99554.72;;;17.37;71.68
22031;BME280;11179;52.106;21.024;2023-09-19T05:13:49;99568.50;;;17.50;71.53
22031;BME280;11179;52.106;21.024;2023-09-19T05:16:18;99587.28;;;17.71;71.45
22031;BME280;11179;52.106;21.024;2023-09-19T05:18:44;99562.13;;;17.58;71.44
22031;BME280;11179;52.106;21.024;2023-09-19T05:21:09;99587.66;;;17.78;71.69
22031;BME280;11179;52.106;21.024;2023-09-19T05:23:34;99587.66;;;17.78;71.34
22031;BME280;11179;52.106;21.024;2023-09-19T05:25:59;99592.38;;;17.77;71.57
22031;BME280;11179;52.106;21.024;2023-09-19T05:28:57;99593.69;;;17.80;71.65
22031;BME280;11179;52.106;21.024;2023-09-19T05:31:59;99558.72;;;17.62;71.38
22031;BME280;11179;52.106;21.024;2023-09-19T05:34:36;99547.44;;;17.58;71.30
22031;BME280;11179;52.106;21.024;2023-09-19T05:37:09;99528.00;;;17.49;71.18
22031;BME280;11179;52.106;21.024;2023-09-19T05:40:02;99569.19;;;17.82;71.13
22031;BME280;11179;52.106;21.024;2023-09-19T05:43:08;99525.72;;;17.60;71.16
22031;BME280;11179;52.106;21.024;2023-09-19T05:45:49;99520.53;;;17.67;70.82
22031;BME280;11179;52.106;21.024;2023-09-19T05:48:35;99556.28;;;18.03;70.75
22031;BME280;11179;52.106;21.024;2023-09-19T05:51:14;99514.47;;;17.91;70.65
22031;BME280;11179;52.106;21.024;2023-09-19T05:53:45;99533.59;;;18.10;70.59
22031;BME280;11179;52.106;21.024;2023-09-19T05:56:16;99536.19;;;18.15;70.36
22031;BME280;11179;52.106;21.024;2023-09-19T05:59:05;99509.41;;;18.10;70.45
22031;BME280;11179;52.106;21.024;2023-09-19T06:01:43;99517.22;;;18.17;70.15
22031;BME280;11179;52.106;21.024;2023-09-19T06:07:08;99515.41;;;18.38;69.92
22031;BME280;11179;52.106;21.024;2023-09-19T06:09:43;99550.97;;;18.71;69.72
22031;BME280;11179;52.106;21.024;2023-09-19T06:12:14;99573.97;;;18.88;69.03
22031;BME280;11179;52.106;21.024;2023-09-19T06:15:01;99571.19;;;18.88;69.10
22031;BME280;11179;52.106;21.024;2023-09-19T06:18:10;99531.22;;;18.63;68.69
22031;BME280;11179;52.106;21.024;2023-09-19T06:20:48;99560.56;;;18.82;68.75
22031;BME280;11179;52.106;21.024;2023-09-19T06:23:16;99562.38;;;18.86;68.79
22031;BME280;11179;52.106;21.024;2023-09-19T06:25:42;99585.72;;;19.03;68.69
22031;BME280;11179;52.106;21.024;2023-09-19T06:28:09;99583.88;;;19.07;68.70
22031;BME280;11179;52.106;21.024;2023-09-19T06:30:37;99601.81;;;19.18;68.11
22031;BME280;11179;52.106;21.024;2023-09-19T06:33:05;99606.25;;;19.27;68.08
22031;BME280;11179;52.106;21.024;2023-09-19T06:35:32;99614.06;;;19.34;68.21
22031;BME280;11179;52.106;21.024;2023-09-19T06:37:58;99620.94;;;19.37;68.00
22031;BME280;11179;52.106;21.024;2023-09-19T06:40:23;99626.66;;;19.40;67.58
22031;BME280;11179;52.106;21.024;2023-09-19T06:42:53;99631.19;;;19.45;67.67
22031;BME280;11179;52.106;21.024;2023-09-19T06:45:26;99621.25;;;19.44;67.38
22031;BME280;11179;52.106;21.024;2023-09-19T06:48:20;99588.41;;;19.28;67.31
22031;BME280;11179;52.106;21.024;2023-09-19T06:50:59;99571.31;;;19.39;67.52
22031;BME280;11179;52.106;21.024;2023-09-19T06:53:34;99600.63;;;19.65;66.98
22031;BME280;11179;52.106;21.024;2023-09-19T06:56:21;99633.16;;;20.03;66.71
22031;BME280;11179;52.106;21.024;2023-09-19T06:59:02;99594.19;;;19.94;66.03
22031;BME280;11179;52.106;21.024;2023-09-19T07:01:30;99567.63;;;19.97;66.22
22031;BME280;11179;52.106;21.024;2023-09-19T07:04:00;99588.56;;;20.24;65.70
22031;BME280;11179;52.106;21.024;2023-09-19T07:06:27;99561.44;;;20.33;65.49
22031;BME280;11179;52.106;21.024;2023-09-19T07:15:17;99578.56;;;21.86;62.50
22031;BME280;11179;52.106;21.024;2023-09-19T07:18:12;99565.84;;;22.01;60.86
22031;BME280;11179;52.106;21.024;2023-09-19T07:20:47;99583.72;;;22.24;60.32
22031;BME280;11179;52.106;21.024;2023-09-19T07:23:38;99591.34;;;22.39;60.19
22031;BME280;11179;52.106;21.024;2023-09-19T07:26:21;99599.59;;;22.92;58.80
22031;BME280;11179;52.106;21.024;2023-09-19T07:29:10;99627.72;;;23.58;57.97
22031;BME280;11179;52.106;21.024;2023-09-19T07:31:51;99654.09;;;23.88;57.40
22031;BME280;11179;52.106;21.024;2023-09-19T07:34:33;99655.09;;;23.96;56.83
22031;BME280;11179;52.106;21.024;2023-09-19T07:37:14;99594.19;;;23.46;55.93
22031;BME280;11179;52.106;21.024;2023-09-19T07:42:47;99644.34;;;23.51;56.30
22031;BME280;11179;52.106;21.024;2023-09-19T07:45:19;99661.91;;;23.79;55.91
22031;BME280;11179;52.106;21.024;2023-09-19T07:47:49;99647.78;;;23.91;55.57
22031;BME280;11179;52.106;21.024;2023-09-19T07:50:25;99614.41;;;23.86;54.85
22031;BME280;11179;52.106;21.024;2023-09-19T07:53:02;99639.56;;;24.18;54.71
22031;BME280;11179;52.106;21.024;2023-09-19T07:55:35;99614.44;;;24.06;54.04
22031;BME280;11179;52.106;21.024;2023-09-19T07:58:07;99608.16;;;23.93;54.48
22031;BME280;11179;52.106;21.024;2023-09-19T08:00:55;99610.78;;;23.86;54.38
22031;BME280;11179;52.106;21.024;2023-09-19T08:03:31;99631.22;;;23.86;54.52
22031;BME280;11179;52.106;21.024;2023-09-19T08:09:29;99608.22;;;23.62;54.32
22031;BME280;11179;52.106;21.024;2023-09-19T08:12:52;99627.97;;;23.84;54.45
22031;BME280;11179;52.106;21.024;2023-09-19T08:15:25;99638.63;;;23.95;54.07
22031;BME280;11179;52.106;21.024;2023-09-19T08:17:50;99646.47;;;24.05;53.76
22031;BME280;11179;52.106;21.024;2023-09-19T08:20:50;99629.56;;;24.01;53.36
22031;BME280;11179;52.106;21.024;2023-09-19T08:26:35;99626.38;;;24.03;52.75
22031;BME280;11179;52.106;21.024;2023-09-19T08:29:25;99619.47;;;23.97;52.75
22031;BME280;11179;52.106;21.024;2023-09-19T08:32:15;99631.84;;;23.96;53.04
22031;BME280;11179;52.106;21.024;2023-09-19T08:34:48;99622.91;;;23.90;53.00
22031;BME280;11179;52.106;21.024;2023-09-19T08:37:51;99627.81;;;23.77;52.78
22031;BME280;11179;52.106;21.024;2023-09-19T08:40:35;99620.41;;;23.53;53.08
22031;BME280;11179;52.106;21.024;2023-09-19T08:43:17;99621.94;;;23.19;53.03
22031;BME280;11179;52.106;21.024;2023-09-19T08:46:21;99636.56;;;22.97;53.65
22031;BME280;11179;52.106;21.024;2023-09-19T08:49:24;99676.03;;;23.08;53.92
22031;BME280;11179;52.106;21.024;2023-09-19T08:52:16;99636.31;;;22.90;54.18
22031;BME280;11179;52.106;21.024;2023-09-19T08:54:56;99645.06;;;23.01;54.32
22031;BME280;11179;52.106;21.024;2023-09-19T08:57:53;99662.84;;;23.08;54.60
22031;BME280;11179;52.106;21.024;2023-09-19T09:00:29;99613.03;;;22.86;54.47
22031;BME280;11179;52.106;21.024;2023-09-19T09:03:12;99679.31;;;23.26;54.62
22031;BME280;11179;52.106;21.024;2023-09-19T09:05:56;99613.50;;;22.88;54.37
22031;BME280;11179;52.106;21.024;2023-09-19T09:11:51;99626.34;;;23.05;54.56
22031;BME280;11179;52.106;21.024;2023-09-19T09:14:24;99670.00;;;23.21;54.31
22031;BME280;11179;52.106;21.024;2023-09-19T09:16:51;99689.63;;;23.21;54.47
22031;BME280;11179;52.106;21.024;2023-09-19T09:19:21;99638.44;;;22.93;54.26
22031;BME280;11179;52.106;21.024;2023-09-19T09:21:53;99693.59;;;23.20;54.64
22031;BME280;11179;52.106;21.024;2023-09-19T09:24:33;99711.31;;;23.25;54.35
22031;BME280;11179;52.106;21.024;2023-09-19T09:27:32;99697.00;;;22.86;54.89
22031;BME280;11179;52.106;21.024;2023-09-19T09:29:59;99657.72;;;22.55;55.57
22031;BME280;11179;52.106;21.024;2023-09-19T09:32:32;99678.47;;;22.54;55.89
22031;BME280;11179;52.106;21.024;2023-09-19T09:35:01;99726.13;;;22.69;55.86
22031;BME280;11179;52.106;21.024;2023-09-19T09:37:32;99725.69;;;22.55;56.22
22031;BME280;11179;52.106;21.024;2023-09-19T09:40:05;99691.97;;;22.24;56.45
22031;BME280;11179;52.106;21.024;2023-09-19T09:43:39;99691.59;;;22.13;56.59
22031;BME280;11179;52.106;21.024;2023-09-19T09:54:44;99731.91;;;21.63;58.16
22031;BME280;11179;52.106;21.024;2023-09-19T09:58:24;99762.56;;;21.39;59.20
22031;BME280;11179;52.106;21.024;2023-09-19T10:01:04;99786.06;;;21.38;60.06
22031;BME280;11179;52.106;21.024;2023-09-19T10:03:40;99757.25;;;21.13;60.68
22031;BME280;11179;52.106;21.024;2023-09-19T10:06:16;99772.50;;;21.16;61.38
22031;BME280;11179;52.106;21.024;2023-09-19T10:09:09;99743.75;;;20.82;62.69
22031;BME280;11179;52.106;21.024;2023-09-19T10:12:03;99794.22;;;21.10;62.88
22031;BME280;11179;52.106;21.024;2023-09-19T10:14:35;99753.28;;;20.81;63.26
22031;BME280;11179;52.106;21.024;2023-09-19T10:17:20;99728.09;;;20.69;63.29
22031;BME280;11179;52.106;21.024;2023-09-19T10:20:34;99740.47;;;20.80;63.81
22031;BME280;11179;52.106;21.024;2023-09-19T10:30:26;99752.31;;;20.98;64.60
22031;BME280;11179;52.106;21.024;2023-09-19T10:33:18;99746.72;;;20.98;64.67
22031;BME280;11179;52.106;21.024;2023-09-19T10:35:48;99714.56;;;20.80;65.05
22031;BME280;11179;52.106;21.024;2023-09-19T10:38:26;99778.53;;;21.18;65.42
22031;BME280;11179;52.106;21.024;2023-09-19T10:40:57;99749.44;;;21.06;65.73
22031;BME280;11179;52.106;21.024;2023-09-19T10:43:35;99719.03;;;20.93;65.94
22031;BME280;11179;52.106;21.024;2023-09-19T10:46:11;99712.56;;;21.01;65.62
22031;BME280;11179;52.106;21.024;2023-09-19T10:48:44;99726.91;;;21.12;66.01
22031;BME280;11179;52.106;21.024;2023-09-19T10:51:21;99744.63;;;21.28;66.12
22031;BME280;11179;52.106;21.024;2023-09-19T10:53:56;99771.75;;;21.39;66.32
22031;BME280;11179;52.106;21.024;2023-09-19T10:56:42;99749.59;;;21.22;66.37
22031;BME280;11179;52.106;21.024;2023-09-19T10:59:15;99726.28;;;21.06;66.61
22031;BME280;11179;52.106;21.024;2023-09-19T11:01:55;99785.25;;;21.37;66.44
22031;BME280;11179;52.106;21.024;2023-09-19T11:04:36;99727.19;;;20.98;66.66
22031;BME280;11179;52.106;21.024;2023-09-19T11:07:14;99761.94;;;21.21;66.52
22031;BME280;11179;52.106;21.024;2023-09-19T11:09:51;99730.22;;;21.05;66.58
22031;BME280;11179;52.106;21.024;2023-09-19T11:16:31;99731.19;;;21.09;66.72
22031;BME280;11179;52.106;21.024;2023-09-19T11:27:12;99731.31;;;21.13;66.86
22031;BME280;11179;52.106;21.024;2023-09-19T11:29:44;99768.84;;;21.36;66.42
22031;BME280;11179;52.106;21.024;2023-09-19T11:32:15;99733.06;;;21.17;66.78
22031;BME280;11179;52.106;21.024;2023-09-19T11:34:43;99773.06;;;21.42;66.63
22031;BME280;11179;52.106;21.024;2023-09-19T11:40:12;99757.47;;;21.41;66.90
22031;BME280;11179;52.106;21.024;2023-09-19T11:42:47;99752.09;;;21.36;66.34
22031;BME280;11179;52.106;21.024;2023-09-19T11:48:28;99742.66;;;21.28;66.41
22031;BME280;11179;52.106;21.024;2023-09-19T11:50:56;99737.41;;;21.27;66.86
22031;BME280;11179;52.106;21.024;2023-09-19T11:53:31;99744.66;;;21.40;67.11
22031;BME280;11179;52.106;21.024;2023-09-19T11:55:59;99749.31;;;21.48;66.87
22031;BME280;11179;52.106;21.024;2023-09-19T11:58:30;99755.44;;;21.62;66.63
22031;BME280;11179;52.106;21.024;2023-09-19T12:03:56;99756.50;;;21.70;65.97
22031;BME280;11179;52.106;21.024;2023-09-19T12:06:27;99737.72;;;21.58;65.62
22031;BME280;11179;52.106;21.024;2023-09-19T12:08:55;99734.47;;;21.56;65.56
22031;BME280;11179;52.106;21.024;2023-09-19T12:11:29;99748.06;;;21.58;65.79
22031;BME280;11179;52.106;21.024;2023-09-19T12:14:07;99769.66;;;21.69;65.32
22031;BME280;11179;52.106;21.024;2023-09-19T12:17:19;99790.59;;;21.75;65.67
22031;BME280;11179;52.106;21.024;2023-09-19T12:20:10;99818.81;;;21.83;65.89
22031;BME280;11179;52.106;21.024;2023-09-19T12:22:45;99802.72;;;21.67;65.60
22031;BME280;11179;52.106;21.024;2023-09-19T12:25:16;99787.41;;;21.53;65.73
22031;BME280;11179;52.106;21.024;2023-09-19T12:28:13;99787.38;;;21.40;65.77
22031;BME280;11179;52.106;21.024;2023-09-19T12:31:35;99835.28;;;21.63;65.48
22031;BME280;11179;52.106;21.024;2023-09-19T12:37:34;99807.25;;;21.39;65.62
22031;BME280;11179;52.106;21.024;2023-09-19T12:50:17;99812.25;;;21.45;65.87
22031;BME280;11179;52.106;21.024;2023-09-19T12:52:57;99796.75;;;21.36;65.72
22031;BME280;11179;52.106;21.024;2023-09-19T12:55:33;99775.88;;;21.21;65.85
22031;BME280;11179;52.106;21.024;2023-09-19T12:58:20;99766.69;;;21.21;66.31
22031;BME280;11179;52.106;21.024;2023-09-19T13:00:52;99827.91;;;21.59;66.22
22031;BME280;11179;52.106;21.024;2023-09-19T13:06:34;99797.59;;;21.49;65.98
22031;BME280;11179;52.106;21.024;2023-09-19T13:09:18;99766.50;;;21.26;65.99
22031;BME280;11179;52.106;21.024;2023-09-19T13:12:02;99766.97;;;21.28;66.33
22031;BME280;11179;52.106;21.024;2023-09-19T13:14:41;99758.59;;;21.28;66.28
22031;BME280;11179;52.106;21.024;2023-09-19T13:17:22;99767.53;;;21.33;66.06
22031;BME280;11179;52.106;21.024;2023-09-19T13:19:50;99825.53;;;21.69;66.38
22031;BME280;11179;52.106;21.024;2023-09-19T13:22:39;99828.09;;;21.74;66.58
22031;BME280;11179;52.106;21.024;2023-09-19T13:25:09;99818.88;;;21.74;66.56
22031;BME280;11179;52.106;21.024;2023-09-19T13:27:40;99827.75;;;21.76;66.50
22031;BME280;11179;52.106;21.024;2023-09-19T13:30:06;99830.66;;;21.79;66.21
22031;BME280;11179;52.106;21.024;2023-09-19T13:32:36;99828.56;;;21.76;66.45
22031;BME280;11179;52.106;21.024;2023-09-19T13:35:10;99822.03;;;21.72;66.04
22031;BME280;11179;52.106;21.024;2023-09-19T13:37:44;99833.22;;;21.85;66.27
22031;BME280;11179;52.106;21.024;2023-09-19T13:40:19;99785.44;;;21.53;65.73
22031;BME280;11179;52.106;21.024;2023-09-19T13:42:49;99818.31;;;21.68;66.08
22031;BME280;11179;52.106;21.024;2023-09-19T13:45:19;99776.88;;;21.37;66.22
22031;BME280;11179;52.106;21.024;2023-09-19T13:47:48;99775.25;;;21.36;66.07
22031;BME280;11179;52.106;21.024;2023-09-19T13:50:15;99810.47;;;21.62;66.23
22031;BME280;11179;52.106;21.024;2023-09-19T13:52:41;99824.09;;;21.63;66.51
22031;BME280;11179;52.106;21.024;2023-09-19T13:55:10;99818.53;;;21.63;66.21
22031;BME280;11179;52.106;21.024;2023-09-19T13:57:40;99830.53;;;21.76;66.35
22031;BME280;11179;52.106;21.024;2023-09-19T14:00:07;99821.91;;;21.69;66.17
22031;BME280;11179;52.106;21.024;2023-09-19T14:02:35;99796.84;;;21.60;66.12
22031;BME280;11179;52.106;21.024;2023-09-19T14:05:01;99827.88;;;21.79;66.26
22031;BME280;11179;52.106;21.024;2023-09-19T14:07:27;99795.94;;;21.56;66.21
22031;BME280;11179;52.106;21.024;2023-09-19T14:09:57;99783.50;;;21.45;66.47
22031;BME280;11179;52.106;21.024;2023-09-19T14:12:26;99794.00;;;21.48;66.51
22031;BME280;11179;52.106;21.024;2023-09-19T14:14:52;99822.25;;;21.67;66.43
22031;BME280;11179;52.106;21.024;2023-09-19T14:17:20;99845.94;;;21.82;66.78
22031;BME280;11179;52.106;21.024;2023-09-19T14:19:46;99853.50;;;21.82;66.71
22031;BME280;11179;52.106;21.024;2023-09-19T14:22:11;99846.28;;;21.80;66.66
22031;BME280;11179;52.106;21.024;2023-09-19T14:24:37;99848.13;;;21.76;66.74
22031;BME280;11179;52.106;21.024;2023-09-19T14:27:02;99853.09;;;21.71;66.87
22031;BME280;11179;52.106;21.024;2023-09-19T14:29:52;99841.69;;;21.64;66.97
22031;BME280;11179;52.106;21.024;2023-09-19T14:32:29;99853.06;;;21.59;66.76
22031;BME280;11179;52.106;21.024;2023-09-19T14:35:00;99858.25;;;21.48;66.42
22031;BME280;11179;52.106;21.024;2023-09-19T14:37:26;99845.81;;;21.25;65.83
22031;BME280;11179;52.106;21.024;2023-09-19T14:39:54;99826.41;;;21.07;65.44
22031;BME280;11179;52.106;21.024;2023-09-19T14:42:20;99840.84;;;21.09;65.44
22031;BME280;11179;52.106;21.024;2023-09-19T14:44:49;99828.72;;;21.05;65.60
22031;BME280;11179;52.106;21.024;2023-09-19T14:47:18;99868.16;;;21.25;65.34
22031;BME280;11179;52.106;21.024;2023-09-19T14:49:44;99802.16;;;20.87;65.11
22031;BME280;11179;52.106;21.024;2023-09-19T14:52:11;99809.47;;;20.92;65.07
22031;BME280;11179;52.106;21.024;2023-09-19T14:54:41;99839.97;;;21.18;65.04
22031;BME280;11179;52.106;21.024;2023-09-19T14:57:07;99866.09;;;21.34;65.49
22031;BME280;11179;52.106;21.024;2023-09-19T14:59:36;99848.94;;;21.23;65.30
22031;BME280;11179;52.106;21.024;2023-09-19T15:02:08;99847.41;;;21.14;65.24
22031;BME280;11179;52.106;21.024;2023-09-19T15:04:35;99821.41;;;21.01;65.38
22031;BME280;11179;52.106;21.024;2023-09-19T15:10:21;99811.00;;;20.89;65.16
22031;BME280;11179;52.106;21.024;2023-09-19T15:12:55;99806.44;;;20.85;65.33
22031;BME280;11179;52.106;21.024;2023-09-19T15:15:31;99798.72;;;20.82;65.06
22031;BME280;11179;52.106;21.024;2023-09-19T15:17:59;99799.06;;;20.80;65.61
22031;BME280;11179;52.106;21.024;2023-09-19T15:20:34;99856.94;;;21.13;65.48
22031;BME280;11179;52.106;21.024;2023-09-19T15:23:09;99865.78;;;21.15;65.45
22031;BME280;11179;52.106;21.024;2023-09-19T15:29:13;99842.25;;;21.03;65.91
22031;BME280;11179;52.106;21.024;2023-09-19T15:31:51;99817.09;;;20.83;66.09
22031;BME280;11179;52.106;21.024;2023-09-19T15:34:30;99826.78;;;20.85;66.00
22031;BME280;11179;52.106;21.024;2023-09-19T15:37:00;99806.81;;;20.74;65.64
22031;BME280;11179;52.106;21.024;2023-09-19T15:39:37;99820.91;;;20.78;65.85
22031;BME280;11179;52.106;21.024;2023-09-19T15:48:12;99823.25;;;20.76;66.29